createdAt,value
2023-02-01T00:00:05.491Z,56.24
2023-02-01T00:01:05.518Z,56.24
2023-02-01T00:02:05.491Z,58.01
2023-02-01T00:03:05.492Z,55.91
2023-02-01T00:04:05.473Z,55.11
2023-02-01T00:05:05.485Z,57.04
2023-02-01T00:06:05.515Z,62.04
2023-02-01T00:07:05.479Z,60.59
2023-02-01T00:08:05.459Z,60.59
2023-02-01T00:09:05.438Z,59.30
2023-02-01T00:10:05.451Z,56.40
2023-02-01T00:11:05.444Z,55.27
2023-02-01T00:12:05.421Z,56.72
2023-02-01T00:13:05.435Z,57.52
2023-02-01T00:14:05.430Z,55.43
2023-02-01T00:15:05.415Z,56.72
2023-02-01T00:16:05.549Z,55.11
2023-02-01T00:17:05.407Z,57.04
2023-02-01T00:18:05.399Z,55.91
2023-02-01T00:19:05.386Z,56.72
2023-02-01T00:20:05.434Z,56.72
2023-02-01T00:21:05.388Z,53.98
2023-02-01T00:22:05.383Z,60.91
2023-02-01T00:23:05.373Z,58.49
2023-02-01T00:24:05.394Z,58.65
2023-02-01T00:25:05.349Z,58.01
2023-02-01T00:26:05.345Z,59.94
2023-02-01T00:27:05.339Z,61.71
2023-02-01T00:28:05.339Z,60.42
2023-02-01T00:29:05.360Z,60.26
2023-02-01T00:30:05.340Z,61.23
2023-02-01T00:31:05.460Z,59.62
2023-02-01T00:32:05.435Z,59.62
2023-02-01T00:33:05.307Z,57.36
2023-02-01T00:34:05.319Z,54.46
2023-02-01T00:35:05.323Z,56.40
2023-02-01T00:36:05.291Z,57.20
2023-02-01T00:37:05.290Z,59.14
2023-02-01T00:38:05.272Z,57.04
2023-02-01T00:39:05.261Z,57.20
2023-02-01T00:40:05.282Z,53.50
2023-02-01T00:41:05.253Z,55.11
2023-02-01T00:42:05.253Z,56.56
2023-02-01T00:43:05.264Z,54.62
2023-02-01T00:44:05.232Z,56.72
2023-02-01T00:45:05.248Z,57.04
2023-02-01T00:46:05.376Z,54.14
2023-02-01T00:47:05.229Z,53.17
2023-02-01T00:48:05.221Z,56.56
2023-02-01T00:49:05.226Z,57.20
2023-02-01T00:50:05.269Z,58.97
2023-02-01T00:51:05.212Z,55.59
2023-02-01T00:52:05.191Z,52.85
2023-02-01T00:53:05.184Z,58.49
2023-02-01T00:54:05.183Z,59.94
2023-02-01T00:55:05.205Z,58.01
2023-02-01T00:56:05.149Z,56.24
2023-02-01T00:57:05.151Z,58.65
2023-02-01T00:58:05.148Z,58.81
2023-02-01T00:59:05.145Z,58.49
2023-02-01T01:00:05.128Z,56.88
2023-02-01T01:01:05.143Z,55.59
2023-02-01T01:02:05.145Z,53.82
2023-02-01T01:03:05.123Z,55.27
2023-02-01T01:04:05.098Z,56.24
2023-02-01T01:05:05.100Z,57.36
2023-02-01T01:06:05.092Z,56.56
2023-02-01T01:07:05.115Z,57.20
2023-02-01T01:08:05.089Z,57.20
2023-02-01T01:09:05.103Z,57.69
2023-02-01T01:10:05.068Z,55.43
2023-02-01T01:11:05.068Z,55.11
2023-02-01T01:12:05.081Z,58.65
2023-02-01T01:13:05.052Z,57.04
2023-02-01T01:14:05.068Z,56.07
2023-02-01T01:15:05.046Z,56.56
2023-02-01T01:16:05.125Z,57.69
2023-02-01T01:17:05.028Z,56.56
2023-02-01T01:18:05.021Z,55.91
2023-02-01T01:19:05.052Z,56.24
2023-02-01T01:20:05.044Z,58.33
2023-02-01T01:21:05.003Z,59.14
2023-02-01T01:22:04.996Z,56.72
2023-02-01T01:23:04.987Z,56.56
2023-02-01T01:24:04.982Z,56.07
2023-02-01T01:25:05.000Z,53.33
2023-02-01T01:26:06.739Z,55.43
2023-02-01T01:27:04.971Z,56.88
2023-02-01T01:28:04.978Z,58.01
2023-02-01T01:29:04.957Z,57.20
2023-02-01T01:30:04.969Z,55.91
2023-02-01T01:31:05.056Z,52.69
2023-02-01T01:32:04.949Z,58.65
2023-02-01T01:33:04.937Z,58.33
2023-02-01T01:34:04.932Z,58.65
2023-02-01T01:35:04.952Z,54.62
2023-02-01T01:36:04.931Z,59.30
2023-02-01T01:37:04.921Z,56.07
2023-02-01T01:38:04.916Z,57.52
2023-02-01T01:39:04.918Z,59.30
2023-02-01T01:40:04.895Z,58.65
2023-02-01T01:41:04.889Z,58.81
2023-02-01T01:42:04.874Z,59.78
2023-02-01T01:43:04.877Z,56.56
2023-02-01T01:44:04.888Z,58.65
2023-02-01T01:45:04.926Z,56.24
2023-02-01T01:46:04.856Z,56.72
2023-02-01T01:47:04.849Z,56.72
2023-02-01T01:48:04.869Z,56.40
2023-02-01T01:49:04.841Z,58.49
2023-02-01T01:50:04.839Z,56.56
2023-02-01T01:51:04.827Z,57.20
2023-02-01T01:52:04.852Z,59.30
2023-02-01T01:53:04.818Z,57.20
2023-02-01T01:54:04.807Z,60.10
2023-02-01T01:55:04.801Z,58.17
2023-02-01T01:56:04.792Z,56.72
2023-02-01T01:57:04.807Z,55.91
2023-02-01T01:58:04.775Z,57.36
2023-02-01T01:59:04.783Z,54.79
2023-02-01T02:00:04.779Z,55.11
2023-02-01T02:01:04.843Z,57.69
2023-02-01T02:02:04.781Z,57.20
2023-02-01T02:03:04.785Z,57.52
2023-02-01T02:04:04.744Z,54.79
2023-02-01T02:05:04.747Z,57.85
2023-02-01T02:06:04.739Z,53.33
2023-02-01T02:07:04.729Z,53.50
2023-02-01T02:08:04.752Z,57.20
2023-02-01T02:09:06.935Z,51.88
2023-02-01T02:10:04.721Z,52.05
2023-02-01T02:11:04.714Z,57.85
2023-02-01T02:12:04.699Z,55.11
2023-02-01T02:13:04.695Z,56.24
2023-02-01T02:14:04.715Z,60.26
2023-02-01T02:15:04.693Z,54.30
2023-02-01T02:16:04.717Z,53.33
2023-02-01T02:17:04.685Z,57.04
2023-02-01T02:18:04.682Z,58.17
2023-02-01T02:19:04.663Z,56.07
2023-02-01T02:20:04.672Z,52.69
2023-02-01T02:21:04.656Z,51.08
2023-02-01T02:22:04.659Z,54.62
2023-02-01T02:23:04.637Z,51.88
2023-02-01T02:24:04.634Z,55.91
2023-02-01T02:25:04.631Z,56.72
2023-02-01T02:26:04.621Z,59.46
2023-02-01T02:27:04.608Z,56.88
2023-02-01T02:28:04.623Z,58.65
2023-02-01T02:29:04.620Z,55.59
2023-02-01T02:30:04.588Z,58.97
2023-02-01T02:31:04.676Z,56.72
2023-02-01T02:32:04.572Z,54.79
2023-02-01T02:33:04.569Z,56.24
2023-02-01T02:34:04.557Z,54.95
2023-02-01T02:35:04.576Z,54.14
2023-02-01T02:36:04.544Z,56.88
2023-02-01T02:37:04.564Z,58.17
2023-02-01T02:38:04.536Z,56.72
2023-02-01T02:39:04.559Z,54.46
2023-02-01T02:40:04.575Z,57.20
2023-02-01T02:41:04.514Z,56.72
2023-02-01T02:42:04.512Z,55.59
2023-02-01T02:43:04.503Z,53.01
2023-02-01T02:44:04.515Z,57.85
2023-02-01T02:45:04.497Z,60.26
2023-02-01T02:46:04.511Z,57.04
2023-02-01T02:47:04.475Z,58.17
2023-02-01T02:48:04.467Z,60.10
2023-02-01T02:49:04.489Z,56.40
2023-02-01T02:50:04.450Z,57.36
2023-02-01T02:51:04.450Z,56.24
2023-02-01T02:52:04.449Z,56.72
2023-02-01T02:53:04.446Z,55.75
2023-02-01T02:54:04.447Z,59.62
2023-02-01T02:55:04.422Z,59.30
2023-02-01T02:56:04.421Z,58.81
2023-02-01T02:57:04.415Z,59.78
2023-02-01T02:58:04.416Z,54.95
2023-02-01T02:59:04.396Z,56.88
2023-02-01T03:00:04.427Z,56.56
2023-02-01T03:01:04.413Z,52.05
2023-02-01T03:02:04.393Z,50.43
2023-02-01T03:03:04.389Z,55.43
2023-02-01T03:04:04.372Z,58.81
2023-02-01T03:05:04.360Z,56.24
2023-02-01T03:06:04.349Z,53.33
2023-02-01T03:07:04.358Z,55.11
2023-02-01T03:08:04.367Z,59.62
2023-02-01T03:09:04.393Z,59.78
2023-02-01T03:10:04.346Z,55.91
2023-02-01T03:11:04.328Z,55.75
2023-02-01T03:12:04.327Z,57.04
2023-02-01T03:13:04.303Z,57.04
2023-02-01T03:14:04.311Z,53.50
2023-02-01T03:15:04.319Z,56.24
2023-02-01T03:16:04.291Z,51.56
2023-02-01T03:17:04.291Z,55.75
2023-02-01T03:18:04.287Z,54.46
2023-02-01T03:19:04.275Z,57.85
2023-02-01T03:20:04.270Z,59.30
2023-02-01T03:21:04.290Z,58.65
2023-02-01T03:22:04.278Z,55.91
2023-02-01T03:23:04.265Z,54.79
2023-02-01T03:24:04.249Z,52.53
2023-02-01T03:25:04.271Z,52.05
2023-02-01T03:26:04.260Z,56.72
2023-02-01T03:27:04.224Z,53.98
2023-02-01T03:28:04.265Z,55.27
2023-02-01T03:29:04.240Z,57.20
2023-02-01T03:30:04.212Z,57.85
2023-02-01T03:31:04.268Z,57.20
2023-02-01T03:32:04.226Z,58.97
2023-02-01T03:33:04.220Z,55.11
2023-02-01T03:34:04.186Z,57.20
2023-02-01T03:35:04.200Z,58.97
2023-02-01T03:36:04.186Z,57.52
2023-02-01T03:37:04.179Z,57.36
2023-02-01T03:38:04.166Z,55.91
2023-02-01T03:39:04.195Z,58.49
2023-02-01T03:40:04.155Z,57.85
2023-02-01T03:41:04.163Z,57.52
2023-02-01T03:42:04.146Z,59.14
2023-02-01T03:43:04.137Z,54.30
2023-02-01T03:44:04.124Z,55.75
2023-02-01T03:45:04.162Z,57.36
2023-02-01T03:46:04.186Z,59.14
2023-02-01T03:47:04.120Z,57.36
2023-02-01T03:48:04.099Z,61.71
2023-02-01T03:49:04.122Z,61.07
2023-02-01T03:50:04.108Z,57.36
2023-02-01T03:51:04.088Z,57.20
2023-02-01T03:52:04.167Z,58.81
2023-02-01T03:53:04.082Z,54.14
2023-02-01T03:54:04.084Z,55.43
2023-02-01T03:55:04.052Z,57.85
2023-02-01T03:56:04.070Z,56.24
2023-02-01T03:57:04.061Z,58.17
2023-02-01T03:58:04.045Z,59.94
2023-02-01T03:59:04.031Z,57.69
2023-02-01T04:00:04.046Z,58.33
2023-02-01T04:01:04.057Z,57.52
2023-02-01T04:02:04.099Z,53.98
2023-02-01T04:03:04.003Z,60.10
2023-02-01T04:04:03.989Z,60.10
2023-02-01T04:05:04.014Z,59.30
2023-02-01T04:06:04.010Z,56.24
2023-02-01T04:07:03.992Z,57.85
2023-02-01T04:08:03.967Z,58.97
2023-02-01T04:09:03.984Z,57.36
2023-02-01T04:10:03.952Z,57.36
2023-02-01T04:11:03.974Z,59.14
2023-02-01T04:12:03.941Z,55.27
2023-02-01T04:13:03.939Z,59.14
2023-02-01T04:14:03.930Z,58.17
2023-02-01T04:15:03.929Z,56.07
2023-02-01T04:16:03.908Z,58.97
2023-02-01T04:17:03.927Z,60.10
2023-02-01T04:18:03.908Z,58.81
2023-02-01T04:19:03.912Z,60.10
2023-02-01T04:20:03.912Z,58.65
2023-02-01T04:21:03.886Z,57.85
2023-02-01T04:22:03.874Z,55.59
2023-02-01T04:23:03.886Z,58.17
2023-02-01T04:24:03.870Z,56.72
2023-02-01T04:25:03.877Z,60.75
2023-02-01T04:26:03.876Z,60.75
2023-02-01T04:27:03.844Z,60.59
2023-02-01T04:28:03.843Z,57.04
2023-02-01T04:29:03.837Z,57.20
2023-02-01T04:30:03.838Z,60.10
2023-02-01T04:31:10.968Z,62.04
2023-02-01T04:32:03.822Z,59.78
2023-02-01T04:33:03.824Z,58.33
2023-02-01T04:34:03.824Z,56.72
2023-02-01T04:35:03.795Z,59.46
2023-02-01T04:36:03.780Z,56.56
2023-02-01T04:37:03.813Z,59.30
2023-02-01T04:38:03.774Z,63.00
2023-02-01T04:39:03.782Z,60.42
2023-02-01T04:40:03.765Z,59.30
2023-02-01T04:41:03.770Z,60.10
2023-02-01T04:42:03.759Z,60.26
2023-02-01T04:43:03.760Z,60.10
2023-02-01T04:44:03.728Z,61.23
2023-02-01T04:45:03.761Z,60.26
2023-02-01T04:46:03.737Z,60.59
2023-02-01T04:47:03.725Z,59.30
2023-02-01T04:48:03.735Z,57.52
2023-02-01T04:49:03.703Z,60.42
2023-02-01T04:50:03.697Z,60.59
2023-02-01T04:51:03.689Z,60.26
2023-02-01T04:52:03.684Z,58.81
2023-02-01T04:53:03.716Z,60.91
2023-02-01T04:54:03.671Z,62.20
2023-02-01T04:55:03.671Z,56.07
2023-02-01T04:56:03.657Z,61.07
2023-02-01T04:57:03.648Z,64.78
2023-02-01T04:58:03.642Z,59.14
2023-02-01T04:59:03.661Z,60.10
2023-02-01T05:00:03.625Z,61.87
2023-02-01T05:01:03.666Z,62.84
2023-02-01T05:02:03.617Z,61.07
2023-02-01T05:03:03.635Z,60.59
2023-02-01T05:04:03.619Z,59.62
2023-02-01T05:05:03.598Z,60.10
2023-02-01T05:06:03.586Z,60.10
2023-02-01T05:07:03.582Z,62.84
2023-02-01T05:08:03.596Z,63.16
2023-02-01T05:09:03.565Z,60.59
2023-02-01T05:10:03.582Z,60.26
2023-02-01T05:11:03.591Z,61.23
2023-02-01T05:12:03.599Z,62.04
2023-02-01T05:13:03.568Z,62.04
2023-02-01T05:14:03.538Z,59.78
2023-02-01T05:15:03.531Z,59.46
2023-02-01T05:16:03.530Z,60.59
2023-02-01T05:17:03.524Z,61.71
2023-02-01T05:18:03.511Z,60.75
2023-02-01T05:19:03.530Z,60.10
2023-02-01T05:20:03.500Z,62.04
2023-02-01T05:21:03.519Z,59.78
2023-02-01T05:22:03.492Z,61.23
2023-02-01T05:23:03.527Z,60.75
2023-02-01T05:24:03.482Z,60.10
2023-02-01T05:25:03.518Z,59.94
2023-02-01T05:26:03.469Z,61.23
2023-02-01T05:27:03.499Z,59.94
2023-02-01T05:28:03.456Z,58.49
2023-02-01T05:29:03.448Z,58.97
2023-02-01T05:30:03.472Z,59.30
2023-02-01T05:31:03.523Z,59.46
2023-02-01T05:32:20.634Z,62.36
2023-02-01T05:33:04.431Z,60.42
2023-02-01T05:34:03.408Z,62.68
2023-02-01T05:35:03.459Z,61.71
2023-02-01T05:36:04.210Z,61.07
2023-02-01T05:37:03.409Z,62.36
2023-02-01T05:38:03.386Z,62.68
2023-02-01T05:39:03.388Z,62.36
2023-02-01T05:40:03.388Z,59.78
2023-02-01T05:41:03.375Z,60.26
2023-02-01T05:42:03.379Z,61.39
2023-02-01T05:43:03.365Z,61.07
2023-02-01T05:44:03.348Z,60.59
2023-02-01T05:45:03.360Z,60.42
2023-02-01T05:46:03.386Z,60.10
2023-02-01T05:47:03.378Z,59.94
2023-02-01T05:48:03.323Z,62.04
2023-02-01T05:49:03.317Z,59.62
2023-02-01T05:50:03.300Z,58.81
2023-02-01T05:51:03.308Z,60.10
2023-02-01T05:52:03.288Z,60.26
2023-02-01T05:53:03.308Z,60.59
2023-02-01T05:54:03.336Z,58.97
2023-02-01T05:55:03.291Z,59.62
2023-02-01T05:56:03.274Z,60.75
2023-02-01T05:57:03.278Z,61.55
2023-02-01T05:58:03.302Z,59.62
2023-02-01T05:59:03.251Z,60.59
2023-02-01T06:00:03.270Z,61.87
2023-02-01T06:01:03.249Z,60.26
2023-02-01T06:02:03.233Z,60.26
2023-02-01T06:03:03.290Z,61.55
2023-02-01T06:04:03.249Z,62.20
2023-02-01T06:05:03.226Z,60.26
2023-02-01T06:06:03.201Z,60.75
2023-02-01T06:07:03.208Z,60.26
2023-02-01T06:08:03.192Z,61.87
2023-02-01T06:09:03.186Z,61.71
2023-02-01T06:10:03.190Z,60.91
2023-02-01T06:11:03.175Z,61.23
2023-02-01T06:12:03.179Z,63.33
2023-02-01T06:13:03.155Z,62.68
2023-02-01T06:14:03.170Z,62.36
2023-02-01T06:15:03.147Z,60.10
2023-02-01T06:16:03.163Z,59.46
2023-02-01T06:17:03.123Z,60.26
2023-02-01T06:18:03.160Z,64.13
2023-02-01T06:19:03.122Z,64.29
2023-02-01T06:20:03.125Z,61.71
2023-02-01T06:21:03.109Z,59.94
2023-02-01T06:22:03.102Z,62.36
2023-02-01T06:23:03.107Z,59.78
2023-02-01T06:24:03.102Z,59.78
2023-02-01T06:25:03.127Z,60.59
2023-02-01T06:26:03.073Z,61.71
2023-02-01T06:27:03.066Z,60.42
2023-02-01T06:28:03.059Z,62.84
2023-02-01T06:29:03.077Z,62.36
2023-02-01T06:30:03.060Z,62.20
2023-02-01T06:31:03.117Z,60.26
2023-02-01T06:32:03.131Z,59.62
2023-02-01T06:33:03.018Z,60.91
2023-02-01T06:34:03.019Z,59.62
2023-02-01T06:35:03.017Z,60.26
2023-02-01T06:36:03.012Z,58.33
2023-02-01T06:37:03.025Z,61.07
2023-02-01T06:38:02.989Z,63.97
2023-02-01T06:39:02.991Z,63.81
2023-02-01T06:40:02.999Z,61.23
2023-02-01T06:41:02.991Z,61.71
2023-02-01T06:42:02.984Z,64.13
2023-02-01T06:43:02.959Z,60.26
2023-02-01T06:44:02.952Z,62.20
2023-02-01T06:45:02.954Z,60.59
2023-02-01T06:46:02.951Z,61.23
2023-02-01T06:47:02.944Z,61.87
2023-02-01T06:48:02.952Z,62.36
2023-02-01T06:49:02.923Z,60.75
2023-02-01T06:50:02.921Z,59.78
2023-02-01T06:51:02.903Z,61.23
2023-02-01T06:52:02.917Z,60.59
2023-02-01T06:53:02.918Z,61.23
2023-02-01T06:54:02.885Z,60.59
2023-02-01T06:55:02.881Z,60.10
2023-02-01T06:56:02.881Z,60.26
2023-02-01T06:57:02.878Z,59.46
2023-02-01T06:58:02.888Z,63.49
2023-02-01T06:59:02.911Z,61.23
2023-02-01T07:00:02.847Z,63.65
2023-02-01T07:01:02.851Z,59.78
2023-02-01T07:02:02.879Z,63.16
2023-02-01T07:03:02.844Z,60.91
2023-02-01T07:04:02.846Z,61.71
2023-02-01T07:05:02.818Z,62.04
2023-02-01T07:06:02.807Z,61.23
2023-02-01T07:07:02.808Z,62.20
2023-02-01T07:08:02.797Z,61.71
2023-02-01T07:09:02.820Z,60.59
2023-02-01T07:10:02.803Z,62.52
2023-02-01T07:11:02.775Z,61.87
2023-02-01T07:12:02.769Z,59.14
2023-02-01T07:13:02.764Z,59.78
2023-02-01T07:14:02.760Z,61.07
2023-02-01T07:15:02.745Z,58.97
2023-02-01T07:16:02.807Z,61.71
2023-02-01T07:17:02.746Z,62.04
2023-02-01T07:18:02.728Z,62.36
2023-02-01T07:19:02.754Z,59.94
2023-02-01T07:20:02.750Z,59.30
2023-02-01T07:21:02.717Z,61.71
2023-02-01T07:22:02.706Z,60.75
2023-02-01T07:23:02.727Z,62.20
2023-02-01T07:24:02.715Z,59.30
2023-02-01T07:25:04.543Z,59.30
2023-02-01T07:26:02.676Z,61.39
2023-02-01T07:27:02.685Z,60.10
2023-02-01T07:28:02.668Z,59.94
2023-02-01T07:29:02.681Z,60.75
2023-02-01T07:30:02.677Z,61.55
2023-02-01T07:31:02.697Z,60.91
2023-02-01T07:32:02.635Z,58.65
2023-02-01T07:33:02.646Z,59.78
2023-02-01T07:34:02.634Z,61.07
2023-02-01T07:35:02.637Z,62.68
2023-02-01T07:36:02.613Z,61.23
2023-02-01T07:37:02.617Z,60.10
2023-02-01T07:38:02.594Z,59.78
2023-02-01T07:39:02.591Z,59.14
2023-02-01T07:40:02.602Z,60.26
2023-02-01T07:41:02.616Z,58.81
2023-02-01T07:42:02.575Z,61.71
2023-02-01T07:43:02.592Z,60.42
2023-02-01T07:44:02.561Z,60.10
2023-02-01T07:45:14.950Z,58.33
2023-02-01T07:46:03.716Z,60.26
2023-02-01T07:47:02.534Z,62.04
2023-02-01T07:48:02.537Z,60.59
2023-02-01T07:49:02.541Z,59.78
2023-02-01T07:50:02.516Z,61.07
2023-02-01T07:51:02.518Z,58.81
2023-02-01T07:52:02.530Z,58.97
2023-02-01T07:53:02.494Z,61.23
2023-02-01T07:54:02.487Z,60.26
2023-02-01T07:55:02.492Z,60.42
2023-02-01T07:56:02.489Z,58.97
2023-02-01T07:57:02.483Z,59.46
2023-02-01T07:58:02.483Z,61.23
2023-02-01T07:59:02.472Z,60.26
2023-02-01T08:00:02.461Z,59.14
2023-02-01T08:01:02.497Z,60.75
2023-02-01T08:02:02.483Z,60.10
2023-02-01T08:03:02.444Z,58.97
2023-02-01T08:04:03.055Z,59.30
2023-02-01T08:05:02.423Z,62.52
2023-02-01T08:06:02.414Z,61.39
2023-02-01T08:07:02.410Z,60.10
2023-02-01T08:08:02.432Z,60.75
2023-02-01T08:09:02.432Z,62.52
2023-02-01T08:10:02.399Z,60.26
2023-02-01T08:11:02.396Z,61.39
2023-02-01T08:12:02.408Z,60.10
2023-02-01T08:13:02.378Z,59.62
2023-02-01T08:14:02.385Z,61.71
2023-02-01T08:15:02.383Z,60.42
2023-02-01T08:16:02.371Z,60.75
2023-02-01T08:17:02.361Z,59.62
2023-02-01T08:18:02.339Z,61.71
2023-02-01T08:19:02.348Z,59.14
2023-02-01T08:20:02.336Z,59.62
2023-02-01T08:21:02.342Z,59.46
2023-02-01T08:22:02.325Z,60.75
2023-02-01T08:23:02.320Z,60.10
2023-02-01T08:24:02.304Z,59.30
2023-02-01T08:25:02.423Z,61.39
2023-02-01T08:26:02.315Z,62.04
2023-02-01T08:27:02.321Z,60.26
2023-02-01T08:28:02.293Z,59.94
2023-02-01T08:29:02.284Z,59.46
2023-02-01T08:30:02.275Z,58.81
2023-02-01T08:31:02.359Z,60.26
2023-02-01T08:32:02.293Z,58.97
2023-02-01T08:33:02.272Z,58.65
2023-02-01T08:34:02.284Z,59.94
2023-02-01T08:35:02.241Z,61.87
2023-02-01T08:36:02.225Z,58.81
2023-02-01T08:37:02.225Z,58.97
2023-02-01T08:38:02.244Z,59.94
2023-02-01T08:39:02.252Z,59.30
2023-02-01T08:40:02.201Z,58.01
2023-02-01T08:41:02.191Z,56.24
2023-02-01T08:42:02.184Z,59.46
2023-02-01T08:43:02.189Z,58.65
2023-02-01T08:44:02.180Z,58.17
2023-02-01T08:45:02.185Z,60.26
2023-02-01T08:46:02.196Z,60.26
2023-02-01T08:47:02.177Z,59.78
2023-02-01T08:48:02.162Z,59.78
2023-02-01T08:49:02.161Z,60.10
2023-02-01T08:50:02.137Z,58.17
2023-02-01T08:51:02.121Z,57.04
2023-02-01T08:52:07.313Z,61.55
2023-02-01T08:53:03.122Z,59.14
2023-02-01T08:54:02.102Z,60.10
2023-02-01T08:55:02.099Z,60.59
2023-02-01T08:56:02.093Z,63.16
2023-02-01T08:57:02.146Z,62.84
2023-02-01T08:58:02.082Z,62.04
2023-02-01T08:59:02.087Z,60.59
2023-02-01T09:00:02.073Z,62.20
2023-02-01T09:01:02.077Z,60.26
2023-02-01T09:02:02.071Z,58.65
2023-02-01T09:03:02.083Z,59.46
2023-02-01T09:04:02.091Z,59.14
2023-02-01T09:05:02.048Z,59.46
2023-02-01T09:06:02.029Z,59.78
2023-02-01T09:07:02.027Z,61.55
2023-02-01T09:08:02.037Z,59.30
2023-02-01T09:09:02.021Z,59.14
2023-02-01T09:10:02.031Z,60.10
2023-02-01T09:11:03.321Z,56.24
2023-02-01T09:12:01.992Z,57.85
2023-02-01T09:13:01.983Z,59.78
2023-02-01T09:14:01.995Z,58.01
2023-02-01T09:15:02.014Z,59.30
2023-02-01T09:16:02.022Z,60.42
2023-02-01T09:17:01.977Z,59.30
2023-02-01T09:18:01.956Z,58.49
2023-02-01T09:19:24.530Z,59.78
2023-02-01T09:20:02.977Z,59.94
2023-02-01T09:21:01.965Z,58.81
2023-02-01T09:22:01.970Z,58.01
2023-02-01T09:23:01.964Z,59.62
2023-02-01T09:24:01.948Z,58.33
2023-02-01T09:25:01.959Z,55.91
2023-02-01T09:26:01.916Z,57.36
2023-02-01T09:27:01.935Z,58.65
2023-02-01T09:28:01.918Z,59.62
2023-02-01T09:29:02.079Z,59.62
2023-02-01T09:30:01.900Z,58.65
2023-02-01T09:31:01.994Z,56.24
2023-02-01T09:32:04.283Z,56.88
2023-02-01T09:33:01.912Z,60.26
2023-02-01T09:34:01.865Z,60.42
2023-02-01T09:35:01.886Z,60.26
2023-02-01T09:36:01.864Z,59.94
2023-02-01T09:37:01.852Z,59.94
2023-02-01T09:38:01.839Z,59.30
2023-02-01T09:39:01.843Z,59.78
2023-02-01T09:40:01.834Z,60.26
2023-02-01T09:41:01.868Z,59.30
2023-02-01T09:42:01.832Z,58.49
2023-02-01T09:43:01.820Z,59.14
2023-02-01T09:44:01.820Z,58.33
2023-02-01T09:45:01.825Z,59.14
2023-02-01T09:46:01.851Z,60.59
2023-02-01T09:47:01.817Z,58.49
2023-02-01T09:48:01.776Z,57.85
2023-02-01T09:49:01.801Z,59.30
2023-02-01T09:50:01.804Z,60.42
2023-02-01T09:51:01.782Z,59.46
2023-02-01T09:52:01.758Z,59.30
2023-02-01T09:53:01.781Z,59.94
2023-02-01T09:54:01.779Z,60.75
2023-02-01T09:55:01.745Z,60.10
2023-02-01T09:56:01.759Z,62.84
2023-02-01T09:57:01.725Z,58.65
2023-02-01T09:58:01.734Z,60.10
2023-02-01T09:59:01.724Z,57.85
2023-02-01T10:00:01.753Z,58.65
2023-02-01T10:01:01.709Z,59.30
2023-02-01T10:02:01.699Z,59.94
2023-02-01T10:03:01.716Z,58.17
2023-02-01T10:04:01.712Z,59.30
2023-02-01T10:05:01.698Z,58.49
2023-02-01T10:06:01.676Z,60.42
2023-02-01T10:07:01.683Z,58.01
2023-02-01T10:08:01.671Z,58.33
2023-02-01T10:09:01.661Z,58.17
2023-02-01T10:10:01.651Z,59.94
2023-02-01T10:11:01.674Z,57.69
2023-02-01T10:12:01.683Z,58.65
2023-02-01T10:13:01.658Z,60.59
2023-02-01T10:14:01.654Z,59.78
2023-02-01T10:15:01.647Z,57.69
2023-02-01T10:16:01.773Z,59.78
2023-02-01T10:17:01.678Z,58.97
2023-02-01T10:18:01.627Z,60.10
2023-02-01T10:19:01.601Z,60.75
2023-02-01T10:20:01.614Z,60.26
2023-02-01T10:21:01.605Z,59.62
2023-02-01T10:22:01.605Z,56.40
2023-02-01T10:23:22.779Z,54.79
2023-02-01T10:24:06.206Z,58.65
2023-02-01T10:25:02.595Z,63.16
2023-02-01T10:26:01.568Z,60.10
2023-02-01T10:27:01.588Z,59.78
2023-02-01T10:28:01.549Z,59.46
2023-02-01T10:29:01.567Z,59.62
2023-02-01T10:30:01.572Z,61.23
2023-02-01T10:31:01.710Z,60.42
2023-02-01T10:32:08.670Z,60.42
2023-02-01T10:33:01.584Z,59.46
2023-02-01T10:34:01.507Z,59.94
2023-02-01T10:35:01.546Z,59.62
2023-02-01T10:36:01.497Z,57.85
2023-02-01T10:37:01.523Z,59.14
2023-02-01T10:38:01.485Z,63.33
2023-02-01T10:39:01.488Z,60.42
2023-02-01T10:40:01.498Z,60.10
2023-02-01T10:41:01.480Z,58.81
2023-02-01T10:42:01.477Z,60.75
2023-02-01T10:43:01.460Z,58.97
2023-02-01T10:44:01.518Z,59.46
2023-02-01T10:45:01.445Z,60.26
2023-02-01T10:46:01.464Z,60.91
2023-02-01T10:47:01.436Z,58.81
2023-02-01T10:48:01.432Z,60.10
2023-02-01T10:49:01.418Z,59.30
2023-02-01T10:50:01.437Z,61.23
2023-02-01T10:51:01.408Z,60.42
2023-02-01T10:52:01.403Z,59.94
2023-02-01T10:53:01.446Z,61.71
2023-02-01T10:54:01.388Z,59.30
2023-02-01T10:55:01.402Z,59.94
2023-02-01T10:56:01.408Z,60.26
2023-02-01T10:57:01.566Z,59.14
2023-02-01T10:58:01.374Z,59.78
2023-02-01T10:59:01.383Z,60.42
2023-02-01T11:00:01.357Z,60.91
2023-02-01T11:01:01.361Z,61.71
2023-02-01T11:02:01.443Z,61.39
2023-02-01T11:03:01.420Z,60.10
2023-02-01T11:04:01.365Z,60.26
2023-02-01T11:05:01.333Z,58.97
2023-02-01T11:06:01.321Z,59.62
2023-02-01T11:07:01.323Z,62.36
2023-02-01T11:08:01.308Z,58.97
2023-02-01T11:09:01.310Z,58.97
2023-02-01T11:10:01.348Z,59.46
2023-02-01T11:11:01.294Z,59.46
2023-02-01T11:12:01.313Z,58.81
2023-02-01T11:13:01.281Z,58.97
2023-02-01T11:14:01.281Z,59.78
2023-02-01T11:15:01.296Z,60.10
2023-02-01T11:16:01.316Z,60.10
2023-02-01T11:17:01.275Z,58.81
2023-02-01T11:18:01.243Z,61.39
2023-02-01T11:19:01.249Z,59.94
2023-02-01T11:20:01.239Z,62.20
2023-02-01T11:21:01.284Z,61.23
2023-02-01T11:22:01.224Z,60.10
2023-02-01T11:23:01.274Z,59.30
2023-02-01T11:24:01.212Z,60.59
2023-02-01T11:25:01.214Z,59.78
2023-02-01T11:26:01.211Z,58.65
2023-02-01T11:27:01.226Z,58.33
2023-02-01T11:28:01.185Z,59.78
2023-02-01T11:29:01.194Z,61.23
2023-02-01T11:30:01.258Z,59.46
2023-02-01T11:31:01.274Z,59.78
2023-02-01T11:32:01.171Z,60.59
2023-02-01T11:33:01.170Z,58.01
2023-02-01T11:34:01.164Z,57.69
2023-02-01T11:35:01.158Z,58.81
2023-02-01T11:36:01.170Z,59.14
2023-02-01T11:37:01.170Z,62.04
2023-02-01T11:38:01.137Z,60.75
2023-02-01T11:39:01.157Z,60.91
2023-02-01T11:40:01.124Z,59.46
2023-02-01T11:41:01.111Z,58.97
2023-02-01T11:42:01.117Z,58.33
2023-02-01T11:43:01.114Z,58.97
2023-02-01T11:44:01.093Z,56.40
2023-02-01T11:45:01.125Z,57.20
2023-02-01T11:46:01.106Z,58.01
2023-02-01T11:47:01.272Z,59.46
2023-02-01T11:48:01.070Z,61.23
2023-02-01T11:49:01.073Z,60.26
2023-02-01T11:50:01.114Z,60.10
2023-02-01T11:51:01.054Z,61.07
2023-02-01T11:52:01.044Z,58.81
2023-02-01T11:53:01.079Z,59.78
2023-02-01T11:54:01.038Z,60.10
2023-02-01T11:55:01.032Z,60.10
2023-02-01T11:56:01.059Z,60.10
2023-02-01T11:57:01.021Z,58.97
2023-02-01T11:58:01.010Z,60.42
2023-02-01T11:59:01.007Z,58.65
2023-02-01T12:00:01.020Z,58.49
2023-02-01T12:01:00.999Z,60.42
2023-02-01T12:02:01.029Z,59.62
2023-02-01T12:03:01.038Z,61.39
2023-02-01T12:04:00.973Z,59.62
2023-02-01T12:05:01.072Z,58.65
2023-02-01T12:06:00.961Z,59.30
2023-02-01T12:07:00.948Z,59.78
2023-02-01T12:08:00.970Z,61.07
2023-02-01T12:09:00.950Z,59.94
2023-02-01T12:10:00.943Z,59.94
2023-02-01T12:11:00.943Z,59.94
2023-02-01T12:12:00.919Z,58.65
2023-02-01T12:13:00.934Z,60.10
2023-02-01T12:14:00.927Z,60.59
2023-02-01T12:15:00.915Z,60.10
2023-02-01T12:16:00.991Z,59.30
2023-02-01T12:17:00.897Z,59.78
2023-02-01T12:18:00.919Z,58.97
2023-02-01T12:19:00.905Z,59.14
2023-02-01T12:20:00.897Z,60.26
2023-02-01T12:21:00.886Z,60.59
2023-02-01T12:22:00.864Z,59.94
2023-02-01T12:23:00.871Z,60.10
2023-02-01T12:24:00.857Z,62.04
2023-02-01T12:25:00.859Z,59.94
2023-02-01T12:26:00.863Z,59.46
2023-02-01T12:27:00.866Z,59.78
2023-02-01T12:28:00.831Z,61.71
2023-02-01T12:29:00.864Z,59.78
2023-02-01T12:30:00.821Z,60.10
2023-02-01T12:31:00.853Z,61.87
2023-02-01T12:32:00.831Z,60.75
2023-02-01T12:33:00.821Z,62.36
2023-02-01T12:34:00.807Z,60.42
2023-02-01T12:35:00.836Z,58.81
2023-02-01T12:36:00.788Z,58.01
2023-02-01T12:37:00.784Z,58.81
2023-02-01T12:38:00.795Z,59.62
2023-02-01T12:39:00.777Z,60.26
2023-02-01T12:40:00.760Z,61.71
2023-02-01T12:41:00.784Z,60.59
2023-02-01T12:42:00.756Z,59.30
2023-02-01T12:43:00.751Z,60.59
2023-02-01T12:44:00.735Z,58.97
2023-02-01T12:45:00.733Z,60.91
2023-02-01T12:46:00.768Z,59.62
2023-02-01T12:47:00.793Z,60.59
2023-02-01T12:48:00.709Z,60.26
2023-02-01T12:49:00.713Z,58.97
2023-02-01T12:50:00.709Z,58.65
2023-02-01T12:51:00.697Z,57.20
2023-02-01T12:52:00.682Z,60.42